sensor_id;sensor_type;location;lat;lon;timestamp;P1;durP1;ratioP1;P2;durP2;ratioP2
31774;SDS011;66189;49.000;11.640;2023-04-09T00:01:48;29.95;;;12.05;;
31774;SDS011;66189;49.000;11.640;2023-04-09T00:03:49;17.52;;;10.93;;
31774;SDS011;66189;49.000;11.640;2023-04-09T00:07:50;17.42;;;10.50;;
31774;SDS011;66189;49.000;11.640;2023-04-09T00:11:51;19.43;;;12.13;;
31774;SDS011;66189;49.000;11.640;2023-04-09T00:13:52;19.77;;;11.18;;
31774;SDS011;66189;49.000;11.640;2023-04-09T00:15:52;18.15;;;11.00;;
31774;SDS011;66189;49.000;11.640;2023-04-09T00:19:53;18.70;;;11.50;;
31774;SDS011;66189;49.000;11.640;2023-04-09T00:21:53;17.77;;;11.05;;
31774;SDS011;66189;49.000;11.640;2023-04-09T00:23:56;18.08;;;11.13;;
31774;SDS011;66189;49.000;11.640;2023-04-09T00:25:57;18.20;;;10.90;;
31774;SDS011;66189;49.000;11.640;2023-04-09T00:27:57;17.60;;;11.75;;
31774;SDS011;66189;49.000;11.640;2023-04-09T00:29:58;19.00;;;12.10;;
31774;SDS011;66189;49.000;11.640;2023-04-09T00:31:58;19.48;;;11.38;;
31774;SDS011;66189;49.000;11.640;2023-04-09T00:33:59;15.35;;;10.43;;
31774;SDS011;66189;49.000;11.640;2023-04-09T00:38:00;17.63;;;10.48;;
31774;SDS011;66189;49.000;11.640;2023-04-09T00:40:01;17.38;;;10.25;;
31774;SDS011;66189;49.000;11.640;2023-04-09T00:44:02;17.43;;;9.70;;
31774;SDS011;66189;49.000;11.640;2023-04-09T00:48:03;16.30;;;10.00;;
31774;SDS011;66189;49.000;11.640;2023-04-09T00:50:04;17.35;;;10.27;;
31774;SDS011;66189;49.000;11.640;2023-04-09T00:52:05;16.80;;;11.07;;
31774;SDS011;66189;49.000;11.640;2023-04-09T00:54:06;18.92;;;11.95;;
31774;SDS011;66189;49.000;11.640;2023-04-09T00:56:06;19.10;;;11.48;;
31774;SDS011;66189;49.000;11.640;2023-04-09T00:58:07;17.35;;;10.82;;
31774;SDS011;66189;49.000;11.640;2023-04-09T01:00:11;14.93;;;10.00;;
31774;SDS011;66189;49.000;11.640;2023-04-09T01:02:12;17.70;;;11.40;;
31774;SDS011;66189;49.000;11.640;2023-04-09T01:04:13;16.83;;;11.05;;
31774;SDS011;66189;49.000;11.640;2023-04-09T01:10:42;20.13;;;11.02;;
31774;SDS011;66189;49.000;11.640;2023-04-09T01:15:14;17.05;;;11.05;;
31774;SDS011;66189;49.000;11.640;2023-04-09T01:17:23;21.30;;;13.30;;
31774;SDS011;66189;49.000;11.640;2023-04-09T01:23:46;24.20;;;13.05;;
31774;SDS011;66189;49.000;11.640;2023-04-09T01:29:10;19.75;;;12.35;;
31774;SDS011;66189;49.000;11.640;2023-04-09T01:31:12;23.08;;;14.45;;
31774;SDS011;66189;49.000;11.640;2023-04-09T01:33:15;23.40;;;13.35;;
31774;SDS011;66189;49.000;11.640;2023-04-09T01:35:18;24.15;;;13.88;;
31774;SDS011;66189;49.000;11.640;2023-04-09T01:37:20;22.02;;;13.30;;
31774;SDS011;66189;49.000;11.640;2023-04-09T01:39:22;22.77;;;13.95;;
31774;SDS011;66189;49.000;11.640;2023-04-09T01:41:24;22.52;;;13.00;;
31774;SDS011;66189;49.000;11.640;2023-04-09T01:43:26;26.02;;;13.95;;
31774;SDS011;66189;49.000;11.640;2023-04-09T01:45:26;23.48;;;13.18;;
31774;SDS011;66189;49.000;11.640;2023-04-09T01:47:27;24.73;;;14.85;;
31774;SDS011;66189;49.000;11.640;2023-04-09T01:49:29;23.80;;;14.82;;
31774;SDS011;66189;49.000;11.640;2023-04-09T01:51:31;22.88;;;12.98;;
31774;SDS011;66189;49.000;11.640;2023-04-09T01:53:32;18.45;;;12.60;;
31774;SDS011;66189;49.000;11.640;2023-04-09T01:55:33;23.52;;;13.45;;
31774;SDS011;66189;49.000;11.640;2023-04-09T01:57:33;22.30;;;13.13;;
31774;SDS011;66189;49.000;11.640;2023-04-09T01:59:33;20.63;;;12.57;;
31774;SDS011;66189;49.000;11.640;2023-04-09T02:03:39;20.70;;;12.57;;
31774;SDS011;66189;49.000;11.640;2023-04-09T02:05:48;22.13;;;12.45;;
31774;SDS011;66189;49.000;11.640;2023-04-09T02:08:11;21.35;;;12.38;;
31774;SDS011;66189;49.000;11.640;2023-04-09T02:10:19;20.13;;;13.00;;
31774;SDS011;66189;49.000;11.640;2023-04-09T02:12:23;21.92;;;13.15;;
31774;SDS011;66189;49.000;11.640;2023-04-09T02:14:24;18.35;;;11.63;;
31774;SDS011;66189;49.000;11.640;2023-04-09T02:16:26;24.23;;;14.95;;
31774;SDS011;66189;49.000;11.640;2023-04-09T02:18:29;37.35;;;20.38;;
31774;SDS011;66189;49.000;11.640;2023-04-09T02:20:30;58.45;;;24.50;;
31774;SDS011;66189;49.000;11.640;2023-04-09T02:22:31;28.30;;;15.05;;
31774;SDS011;66189;49.000;11.640;2023-04-09T02:24:32;26.98;;;15.43;;
31774;SDS011;66189;49.000;11.640;2023-04-09T02:26:33;25.55;;;13.98;;
31774;SDS011;66189;49.000;11.640;2023-04-09T02:28:36;24.65;;;14.27;;
31774;SDS011;66189;49.000;11.640;2023-04-09T02:30:36;21.65;;;13.52;;
31774;SDS011;66189;49.000;11.640;2023-04-09T02:32:37;21.33;;;12.50;;
31774;SDS011;66189;49.000;11.640;2023-04-09T02:34:37;22.65;;;12.93;;
31774;SDS011;66189;49.000;11.640;2023-04-09T02:36:38;20.63;;;13.20;;
31774;SDS011;66189;49.000;11.640;2023-04-09T02:40:39;20.88;;;12.52;;
31774;SDS011;66189;49.000;11.640;2023-04-09T02:44:40;25.03;;;13.97;;
31774;SDS011;66189;49.000;11.640;2023-04-09T02:46:42;22.73;;;12.52;;
31774;SDS011;66189;49.000;11.640;2023-04-09T02:48:43;25.05;;;13.95;;
31774;SDS011;66189;49.000;11.640;2023-04-09T02:50:44;27.00;;;14.82;;
31774;SDS011;66189;49.000;11.640;2023-04-09T02:52:45;23.33;;;14.15;;
31774;SDS011;66189;49.000;11.640;2023-04-09T02:54:46;26.83;;;14.77;;
31774;SDS011;66189;49.000;11.640;2023-04-09T02:56:47;26.48;;;14.55;;
31774;SDS011;66189;49.000;11.640;2023-04-09T02:58:47;24.67;;;13.70;;
31774;SDS011;66189;49.000;11.640;2023-04-09T03:00:50;25.92;;;14.43;;
31774;SDS011;66189;49.000;11.640;2023-04-09T03:02:51;24.75;;;15.07;;
31774;SDS011;66189;49.000;11.640;2023-04-09T03:06:52;27.50;;;14.60;;
31774;SDS011;66189;49.000;11.640;2023-04-09T03:08:52;25.55;;;14.27;;
31774;SDS011;66189;49.000;11.640;2023-04-09T03:10:53;25.27;;;14.63;;
31774;SDS011;66189;49.000;11.640;2023-04-09T03:12:53;28.33;;;15.18;;
31774;SDS011;66189;49.000;11.640;2023-04-09T03:14:55;28.50;;;15.43;;
31774;SDS011;66189;49.000;11.640;2023-04-09T03:16:55;27.00;;;15.40;;
31774;SDS011;66189;49.000;11.640;2023-04-09T03:18:55;30.27;;;16.02;;
31774;SDS011;66189;49.000;11.640;2023-04-09T03:22:57;28.55;;;15.88;;
31774;SDS011;66189;49.000;11.640;2023-04-09T03:25:12;27.05;;;15.00;;
31774;SDS011;66189;49.000;11.640;2023-04-09T03:27:12;29.17;;;16.27;;
31774;SDS011;66189;49.000;11.640;2023-04-09T03:29:13;30.60;;;17.08;;
31774;SDS011;66189;49.000;11.640;2023-04-09T03:31:13;29.00;;;16.38;;
31774;SDS011;66189;49.000;11.640;2023-04-09T03:33:15;28.88;;;14.77;;
31774;SDS011;66189;49.000;11.640;2023-04-09T03:35:24;31.77;;;17.58;;
31774;SDS011;66189;49.000;11.640;2023-04-09T03:37:30;29.13;;;15.85;;
31774;SDS011;66189;49.000;11.640;2023-04-09T03:39:31;29.95;;;17.05;;
31774;SDS011;66189;49.000;11.640;2023-04-09T03:41:31;28.33;;;16.08;;
31774;SDS011;66189;49.000;11.640;2023-04-09T03:43:36;28.80;;;16.25;;
31774;SDS011;66189;49.000;11.640;2023-04-09T03:45:37;26.30;;;15.80;;
31774;SDS011;66189;49.000;11.640;2023-04-09T03:47:50;30.00;;;16.30;;
31774;SDS011;66189;49.000;11.640;2023-04-09T03:49:55;29.15;;;15.15;;
31774;SDS011;66189;49.000;11.640;2023-04-09T03:52:00;30.33;;;17.58;;
31774;SDS011;66189;49.000;11.640;2023-04-09T03:54:08;27.83;;;16.42;;
31774;SDS011;66189;49.000;11.640;2023-04-09T03:56:09;29.05;;;16.65;;
31774;SDS011;66189;49.000;11.640;2023-04-09T03:58:10;26.13;;;15.25;;
31774;SDS011;66189;49.000;11.640;2023-04-09T04:00:11;24.92;;;14.30;;
31774;SDS011;66189;49.000;11.640;2023-04-09T04:02:24;25.95;;;15.15;;
31774;SDS011;66189;49.000;11.640;2023-04-09T04:04:33;27.25;;;14.93;;
31774;SDS011;66189;49.000;11.640;2023-04-09T04:06:37;28.27;;;16.08;;
31774;SDS011;66189;49.000;11.640;2023-04-09T04:08:53;25.48;;;14.70;;
31774;SDS011;66189;49.000;11.640;2023-04-09T04:11:03;27.50;;;14.70;;
31774;SDS011;66189;49.000;11.640;2023-04-09T04:13:07;28.65;;;14.75;;
31774;SDS011;66189;49.000;11.640;2023-04-09T04:15:16;22.63;;;13.98;;
31774;SDS011;66189;49.000;11.640;2023-04-09T04:17:23;23.63;;;14.05;;
31774;SDS011;66189;49.000;11.640;2023-04-09T04:19:25;26.23;;;14.00;;
31774;SDS011;66189;49.000;11.640;2023-04-09T04:21:26;29.15;;;14.77;;
31774;SDS011;66189;49.000;11.640;2023-04-09T04:23:33;26.13;;;15.77;;
31774;SDS011;66189;49.000;11.640;2023-04-09T04:25:49;26.52;;;14.57;;
31774;SDS011;66189;49.000;11.640;2023-04-09T04:27:57;25.20;;;14.43;;
31774;SDS011;66189;49.000;11.640;2023-04-09T04:30:05;27.77;;;15.45;;
31774;SDS011;66189;49.000;11.640;2023-04-09T04:32:17;27.02;;;15.65;;
31774;SDS011;66189;49.000;11.640;2023-04-09T04:34:18;29.00;;;15.57;;
31774;SDS011;66189;49.000;11.640;2023-04-09T04:36:23;29.38;;;16.42;;
31774;SDS011;66189;49.000;11.640;2023-04-09T04:38:25;27.70;;;14.52;;
31774;SDS011;66189;49.000;11.640;2023-04-09T04:40:27;27.42;;;15.35;;
31774;SDS011;66189;49.000;11.640;2023-04-09T04:42:32;24.90;;;14.35;;
31774;SDS011;66189;49.000;11.640;2023-04-09T04:44:35;28.10;;;14.52;;
31774;SDS011;66189;49.000;11.640;2023-04-09T04:46:46;25.10;;;14.50;;
31774;SDS011;66189;49.000;11.640;2023-04-09T04:48:46;26.13;;;15.00;;
31774;SDS011;66189;49.000;11.640;2023-04-09T04:50:53;26.05;;;15.70;;
31774;SDS011;66189;49.000;11.640;2023-04-09T04:52:55;25.17;;;15.10;;
31774;SDS011;66189;49.000;11.640;2023-04-09T04:54:59;24.73;;;14.50;;
31774;SDS011;66189;49.000;11.640;2023-04-09T04:57:00;28.58;;;14.93;;
31774;SDS011;66189;49.000;11.640;2023-04-09T04:59:13;26.65;;;14.65;;
31774;SDS011;66189;49.000;11.640;2023-04-09T05:01:27;26.10;;;14.93;;
31774;SDS011;66189;49.000;11.640;2023-04-09T05:03:28;27.50;;;16.33;;
31774;SDS011;66189;49.000;11.640;2023-04-09T05:05:43;28.38;;;16.13;;
31774;SDS011;66189;49.000;11.640;2023-04-09T05:07:45;29.30;;;15.15;;
31774;SDS011;66189;49.000;11.640;2023-04-09T05:09:46;30.48;;;16.80;;
31774;SDS011;66189;49.000;11.640;2023-04-09T05:11:46;30.95;;;17.05;;
31774;SDS011;66189;49.000;11.640;2023-04-09T05:13:52;30.23;;;16.05;;
31774;SDS011;66189;49.000;11.640;2023-04-09T05:15:53;26.65;;;15.25;;
31774;SDS011;66189;49.000;11.640;2023-04-09T05:17:54;28.20;;;14.85;;
31774;SDS011;66189;49.000;11.640;2023-04-09T05:19:56;28.42;;;15.57;;
31774;SDS011;66189;49.000;11.640;2023-04-09T05:22:04;29.40;;;16.10;;
31774;SDS011;66189;49.000;11.640;2023-04-09T05:24:05;27.95;;;16.40;;
31774;SDS011;66189;49.000;11.640;2023-04-09T05:26:07;27.23;;;14.90;;
31774;SDS011;66189;49.000;11.640;2023-04-09T05:28:27;27.08;;;15.90;;
31774;SDS011;66189;49.000;11.640;2023-04-09T05:30:38;28.20;;;15.38;;
31774;SDS011;66189;49.000;11.640;2023-04-09T05:32:39;30.73;;;16.25;;
31774;SDS011;66189;49.000;11.640;2023-04-09T05:34:40;27.17;;;15.68;;
31774;SDS011;66189;49.000;11.640;2023-04-09T05:36:40;31.15;;;17.33;;
31774;SDS011;66189;49.000;11.640;2023-04-09T05:38:42;35.70;;;18.35;;
31774;SDS011;66189;49.000;11.640;2023-04-09T05:40:43;31.75;;;18.58;;
31774;SDS011;66189;49.000;11.640;2023-04-09T05:42:46;30.98;;;17.55;;
31774;SDS011;66189;49.000;11.640;2023-04-09T05:44:54;36.20;;;17.95;;
31774;SDS011;66189;49.000;11.640;2023-04-09T05:46:55;31.65;;;17.40;;
31774;SDS011;66189;49.000;11.640;2023-04-09T05:49:02;31.30;;;18.63;;
31774;SDS011;66189;49.000;11.640;2023-04-09T05:51:04;35.33;;;19.80;;
31774;SDS011;66189;49.000;11.640;2023-04-09T05:53:06;39.95;;;21.15;;
31774;SDS011;66189;49.000;11.640;2023-04-09T05:55:12;36.78;;;19.90;;
31774;SDS011;66189;49.000;11.640;2023-04-09T05:57:28;35.13;;;19.67;;
31774;SDS011;66189;49.000;11.640;2023-04-09T05:59:33;41.15;;;20.90;;
31774;SDS011;66189;49.000;11.640;2023-04-09T06:01:34;42.40;;;22.73;;
31774;SDS011;66189;49.000;11.640;2023-04-09T06:03:37;40.67;;;22.75;;
31774;SDS011;66189;49.000;11.640;2023-04-09T06:05:37;45.00;;;24.00;;
31774;SDS011;66189;49.000;11.640;2023-04-09T06:07:37;46.38;;;24.55;;
31774;SDS011;66189;49.000;11.640;2023-04-09T06:09:38;46.97;;;24.65;;
31774;SDS011;66189;49.000;11.640;2023-04-09T06:13:39;49.20;;;24.13;;
31774;SDS011;66189;49.000;11.640;2023-04-09T06:15:40;52.20;;;26.40;;
31774;SDS011;66189;49.000;11.640;2023-04-09T06:17:41;53.78;;;25.83;;
31774;SDS011;66189;49.000;11.640;2023-04-09T06:19:42;56.08;;;27.48;;
31774;SDS011;66189;49.000;11.640;2023-04-09T06:21:42;50.65;;;27.20;;
31774;SDS011;66189;49.000;11.640;2023-04-09T06:23:43;57.83;;;27.17;;
31774;SDS011;66189;49.000;11.640;2023-04-09T06:25:43;53.25;;;27.45;;
31774;SDS011;66189;49.000;11.640;2023-04-09T06:27:44;59.38;;;28.38;;
31774;SDS011;66189;49.000;11.640;2023-04-09T06:29:44;58.58;;;29.20;;
31774;SDS011;66189;49.000;11.640;2023-04-09T06:33:45;63.40;;;29.00;;
31774;SDS011;66189;49.000;11.640;2023-04-09T06:35:46;62.58;;;29.77;;
31774;SDS011;66189;49.000;11.640;2023-04-09T06:37:48;57.55;;;28.23;;
31774;SDS011;66189;49.000;11.640;2023-04-09T06:39:48;58.17;;;29.17;;
31774;SDS011;66189;49.000;11.640;2023-04-09T06:41:48;58.03;;;29.52;;
31774;SDS011;66189;49.000;11.640;2023-04-09T06:44:10;57.75;;;28.33;;
31774;SDS011;66189;49.000;11.640;2023-04-09T06:46:11;60.70;;;29.90;;
31774;SDS011;66189;49.000;11.640;2023-04-09T06:48:12;55.92;;;27.67;;
31774;SDS011;66189;49.000;11.640;2023-04-09T06:50:13;52.28;;;27.27;;
31774;SDS011;66189;49.000;11.640;2023-04-09T06:52:13;57.00;;;28.88;;
31774;SDS011;66189;49.000;11.640;2023-04-09T06:54:13;56.88;;;28.35;;
31774;SDS011;66189;49.000;11.640;2023-04-09T06:56:14;51.90;;;27.70;;
31774;SDS011;66189;49.000;11.640;2023-04-09T06:58:14;50.60;;;27.70;;
31774;SDS011;66189;49.000;11.640;2023-04-09T07:02:16;52.17;;;26.87;;
31774;SDS011;66189;49.000;11.640;2023-04-09T07:06:17;60.75;;;28.95;;
31774;SDS011;66189;49.000;11.640;2023-04-09T07:08:17;59.50;;;28.70;;
31774;SDS011;66189;49.000;11.640;2023-04-09T07:10:18;56.30;;;28.40;;
31774;SDS011;66189;49.000;11.640;2023-04-09T07:12:25;55.13;;;28.02;;
31774;SDS011;66189;49.000;11.640;2023-04-09T07:14:29;53.13;;;29.35;;
31774;SDS011;66189;49.000;11.640;2023-04-09T07:16:30;57.25;;;28.25;;
31774;SDS011;66189;49.000;11.640;2023-04-09T07:20:30;54.00;;;28.43;;
31774;SDS011;66189;49.000;11.640;2023-04-09T07:22:31;57.72;;;30.70;;
31774;SDS011;66189;49.000;11.640;2023-04-09T07:26:32;54.67;;;27.07;;
31774;SDS011;66189;49.000;11.640;2023-04-09T07:28:32;44.95;;;25.75;;
31774;SDS011;66189;49.000;11.640;2023-04-09T07:32:33;50.07;;;27.37;;
31774;SDS011;66189;49.000;11.640;2023-04-09T07:34:33;50.58;;;26.35;;
31774;SDS011;66189;49.000;11.640;2023-04-09T07:38:34;46.30;;;25.10;;
31774;SDS011;66189;49.000;11.640;2023-04-09T07:42:36;45.58;;;24.95;;
31774;SDS011;66189;49.000;11.640;2023-04-09T07:44:38;48.55;;;28.27;;
31774;SDS011;66189;49.000;11.640;2023-04-09T07:46:38;53.28;;;28.25;;
31774;SDS011;66189;49.000;11.640;2023-04-09T07:48:40;45.30;;;26.35;;
31774;SDS011;66189;49.000;11.640;2023-04-09T07:50:40;49.33;;;27.27;;
31774;SDS011;66189;49.000;11.640;2023-04-09T07:52:41;48.88;;;27.85;;
31774;SDS011;66189;49.000;11.640;2023-04-09T07:56:42;53.33;;;27.87;;
31774;SDS011;66189;49.000;11.640;2023-04-09T08:00:43;45.20;;;24.73;;
31774;SDS011;66189;49.000;11.640;2023-04-09T08:02:44;44.50;;;23.73;;
31774;SDS011;66189;49.000;11.640;2023-04-09T08:04:45;41.67;;;24.27;;
31774;SDS011;66189;49.000;11.640;2023-04-09T08:06:45;43.30;;;23.50;;
31774;SDS011;66189;49.000;11.640;2023-04-09T08:08:49;40.28;;;24.02;;
31774;SDS011;66189;49.000;11.640;2023-04-09T08:10:50;41.72;;;24.63;;
31774;SDS011;66189;49.000;11.640;2023-04-09T08:14:51;40.57;;;22.77;;
31774;SDS011;66189;49.000;11.640;2023-04-09T08:16:51;39.28;;;21.77;;
31774;SDS011;66189;49.000;11.640;2023-04-09T08:18:55;35.50;;;21.60;;
31774;SDS011;66189;49.000;11.640;2023-04-09T08:20:56;37.80;;;22.50;;
31774;SDS011;66189;49.000;11.640;2023-04-09T08:22:56;38.28;;;21.25;;
31774;SDS011;66189;49.000;11.640;2023-04-09T08:24:58;40.17;;;23.58;;
31774;SDS011;66189;49.000;11.640;2023-04-09T08:26:58;34.67;;;21.55;;
31774;SDS011;66189;49.000;11.640;2023-04-09T08:28:59;36.72;;;20.60;;
31774;SDS011;66189;49.000;11.640;2023-04-09T08:30:59;35.00;;;19.05;;
31774;SDS011;66189;49.000;11.640;2023-04-09T08:33:00;39.00;;;21.70;;
31774;SDS011;66189;49.000;11.640;2023-04-09T08:35:01;36.08;;;21.33;;
31774;SDS011;66189;49.000;11.640;2023-04-09T08:37:01;36.42;;;21.38;;
31774;SDS011;66189;49.000;11.640;2023-04-09T08:41:03;37.40;;;21.10;;
31774;SDS011;66189;49.000;11.640;2023-04-09T08:43:04;37.30;;;22.20;;
31774;SDS011;66189;49.000;11.640;2023-04-09T08:45:06;44.33;;;23.90;;
31774;SDS011;66189;49.000;11.640;2023-04-09T08:47:08;31.83;;;18.90;;
31774;SDS011;66189;49.000;11.640;2023-04-09T08:49:12;33.55;;;19.77;;
31774;SDS011;66189;49.000;11.640;2023-04-09T08:51:13;34.55;;;20.13;;
31774;SDS011;66189;49.000;11.640;2023-04-09T08:53:14;31.63;;;19.73;;
31774;SDS011;66189;49.000;11.640;2023-04-09T08:55:16;33.15;;;19.77;;
31774;SDS011;66189;49.000;11.640;2023-04-09T08:57:17;32.67;;;19.88;;
31774;SDS011;66189;49.000;11.640;2023-04-09T09:03:18;38.17;;;20.02;;
31774;SDS011;66189;49.000;11.640;2023-04-09T09:05:30;32.90;;;18.20;;
31774;SDS011;66189;49.000;11.640;2023-04-09T09:07:35;33.75;;;17.95;;
31774;SDS011;66189;49.000;11.640;2023-04-09T09:09:48;31.75;;;18.13;;
31774;SDS011;66189;49.000;11.640;2023-04-09T09:11:51;28.13;;;17.05;;
31774;SDS011;66189;49.000;11.640;2023-04-09T09:13:56;28.02;;;17.42;;
31774;SDS011;66189;49.000;11.640;2023-04-09T09:16:12;30.38;;;17.75;;
31774;SDS011;66189;49.000;11.640;2023-04-09T09:18:14;28.35;;;16.23;;
31774;SDS011;66189;49.000;11.640;2023-04-09T09:20:18;26.90;;;15.77;;
31774;SDS011;66189;49.000;11.640;2023-04-09T09:22:19;23.90;;;16.75;;
31774;SDS011;66189;49.000;11.640;2023-04-09T09:24:20;26.63;;;16.25;;
31774;SDS011;66189;49.000;11.640;2023-04-09T09:26:22;23.85;;;15.52;;
31774;SDS011;66189;49.000;11.640;2023-04-09T09:28:24;20.38;;;13.43;;
31774;SDS011;66189;49.000;11.640;2023-04-09T09:30:36;21.70;;;13.75;;
31774;SDS011;66189;49.000;11.640;2023-04-09T09:32:38;25.20;;;14.27;;
31774;SDS011;66189;49.000;11.640;2023-04-09T09:34:40;25.55;;;14.93;;
31774;SDS011;66189;49.000;11.640;2023-04-09T09:36:40;27.88;;;16.52;;
31774;SDS011;66189;49.000;11.640;2023-04-09T09:40:51;26.23;;;15.85;;
31774;SDS011;66189;49.000;11.640;2023-04-09T09:42:54;24.65;;;15.27;;
31774;SDS011;66189;49.000;11.640;2023-04-09T09:44:56;24.52;;;15.27;;
31774;SDS011;66189;49.000;11.640;2023-04-09T09:46:58;22.50;;;14.00;;
31774;SDS011;66189;49.000;11.640;2023-04-09T09:48:59;22.23;;;13.88;;
31774;SDS011;66189;49.000;11.640;2023-04-09T09:51:01;19.50;;;13.45;;
31774;SDS011;66189;49.000;11.640;2023-04-09T09:53:07;24.73;;;14.93;;
31774;SDS011;66189;49.000;11.640;2023-04-09T09:55:09;26.15;;;16.08;;
31774;SDS011;66189;49.000;11.640;2023-04-09T09:57:15;26.08;;;16.45;;
31774;SDS011;66189;49.000;11.640;2023-04-09T09:59:19;29.52;;;17.00;;
31774;SDS011;66189;49.000;11.640;2023-04-09T10:01:21;26.35;;;16.02;;
31774;SDS011;66189;49.000;11.640;2023-04-09T10:03:26;24.33;;;15.60;;
31774;SDS011;66189;49.000;11.640;2023-04-09T10:05:29;26.23;;;15.70;;
31774;SDS011;66189;49.000;11.640;2023-04-09T10:07:30;24.05;;;16.13;;
31774;SDS011;66189;49.000;11.640;2023-04-09T10:11:34;25.75;;;15.68;;
31774;SDS011;66189;49.000;11.640;2023-04-09T10:13:37;28.90;;;17.20;;
31774;SDS011;66189;49.000;11.640;2023-04-09T10:15:39;25.13;;;16.23;;
31774;SDS011;66189;49.000;11.640;2023-04-09T10:17:43;22.70;;;13.95;;
31774;SDS011;66189;49.000;11.640;2023-04-09T10:19:46;19.92;;;13.43;;
31774;SDS011;66189;49.000;11.640;2023-04-09T10:21:56;20.85;;;14.63;;
31774;SDS011;66189;49.000;11.640;2023-04-09T10:24:03;20.52;;;13.32;;
31774;SDS011;66189;49.000;11.640;2023-04-09T10:26:07;20.38;;;12.45;;
31774;SDS011;66189;49.000;11.640;2023-04-09T10:28:14;18.63;;;11.60;;
31774;SDS011;66189;49.000;11.640;2023-04-09T10:30:32;19.10;;;12.25;;
31774;SDS011;66189;49.000;11.640;2023-04-09T10:32:33;17.63;;;11.93;;
31774;SDS011;66189;49.000;11.640;2023-04-09T10:34:37;15.40;;;11.05;;
31774;SDS011;66189;49.000;11.640;2023-04-09T10:36:41;20.15;;;12.90;;
31774;SDS011;66189;49.000;11.640;2023-04-09T10:38:45;19.23;;;12.82;;
31774;SDS011;66189;49.000;11.640;2023-04-09T10:40:46;17.77;;;12.05;;
31774;SDS011;66189;49.000;11.640;2023-04-09T10:42:48;19.02;;;11.38;;
31774;SDS011;66189;49.000;11.640;2023-04-09T10:45:06;17.58;;;11.50;;
31774;SDS011;66189;49.000;11.640;2023-04-09T10:47:14;18.70;;;11.75;;
31774;SDS011;66189;49.000;11.640;2023-04-09T10:49:35;21.52;;;12.98;;
31774;SDS011;66189;49.000;11.640;2023-04-09T10:51:37;19.17;;;12.32;;
31774;SDS011;66189;49.000;11.640;2023-04-09T10:53:38;18.23;;;12.32;;
31774;SDS011;66189;49.000;11.640;2023-04-09T10:55:39;19.95;;;12.55;;
31774;SDS011;66189;49.000;11.640;2023-04-09T10:57:41;19.15;;;12.65;;
31774;SDS011;66189;49.000;11.640;2023-04-09T10:59:43;14.98;;;11.18;;
31774;SDS011;66189;49.000;11.640;2023-04-09T11:01:51;16.42;;;10.95;;
31774;SDS011;66189;49.000;11.640;2023-04-09T11:04:15;17.35;;;11.82;;
31774;SDS011;66189;49.000;11.640;2023-04-09T11:06:19;18.45;;;12.13;;
31774;SDS011;66189;49.000;11.640;2023-04-09T11:08:21;19.42;;;12.48;;
31774;SDS011;66189;49.000;11.640;2023-04-09T11:10:22;21.00;;;12.45;;
31774;SDS011;66189;49.000;11.640;2023-04-09T11:14:22;19.27;;;12.57;;
31774;SDS011;66189;49.000;11.640;2023-04-09T11:16:24;19.15;;;12.85;;
31774;SDS011;66189;49.000;11.640;2023-04-09T11:18:26;18.58;;;12.50;;
31774;SDS011;66189;49.000;11.640;2023-04-09T11:20:28;19.58;;;12.82;;
31774;SDS011;66189;49.000;11.640;2023-04-09T11:22:30;18.92;;;12.70;;
31774;SDS011;66189;49.000;11.640;2023-04-09T11:24:40;17.65;;;12.35;;
31774;SDS011;66189;49.000;11.640;2023-04-09T11:26:46;17.63;;;11.15;;
31774;SDS011;66189;49.000;11.640;2023-04-09T11:28:48;18.00;;;11.85;;
31774;SDS011;66189;49.000;11.640;2023-04-09T11:30:51;18.67;;;11.88;;
31774;SDS011;66189;49.000;11.640;2023-04-09T11:32:52;16.63;;;10.65;;
31774;SDS011;66189;49.000;11.640;2023-04-09T11:34:52;14.90;;;9.90;;
31774;SDS011;66189;49.000;11.640;2023-04-09T11:36:53;15.65;;;10.43;;
31774;SDS011;66189;49.000;11.640;2023-04-09T11:38:54;14.10;;;9.93;;
31774;SDS011;66189;49.000;11.640;2023-04-09T11:40:55;15.77;;;10.38;;
31774;SDS011;66189;49.000;11.640;2023-04-09T11:42:56;14.88;;;10.35;;
31774;SDS011;66189;49.000;11.640;2023-04-09T11:44:57;14.70;;;9.95;;
31774;SDS011;66189;49.000;11.640;2023-04-09T11:46:58;14.65;;;10.45;;
31774;SDS011;66189;49.000;11.640;2023-04-09T11:48:59;16.83;;;11.27;;
31774;SDS011;66189;49.000;11.640;2023-04-09T11:51:00;17.60;;;11.60;;
31774;SDS011;66189;49.000;11.640;2023-04-09T11:53:13;20.70;;;12.38;;
31774;SDS011;66189;49.000;11.640;2023-04-09T11:55:29;18.77;;;11.95;;
31774;SDS011;66189;49.000;11.640;2023-04-09T11:59:41;17.48;;;12.63;;
31774;SDS011;66189;49.000;11.640;2023-04-09T12:01:42;18.17;;;12.40;;
31774;SDS011;66189;49.000;11.640;2023-04-09T12:03:54;18.35;;;12.15;;
31774;SDS011;66189;49.000;11.640;2023-04-09T12:05:55;18.60;;;12.52;;
31774;SDS011;66189;49.000;11.640;2023-04-09T12:07:56;18.63;;;12.18;;
31774;SDS011;66189;49.000;11.640;2023-04-09T12:10:02;18.23;;;12.10;;
31774;SDS011;66189;49.000;11.640;2023-04-09T12:12:09;19.70;;;12.95;;
31774;SDS011;66189;49.000;11.640;2023-04-09T12:14:14;17.85;;;12.07;;
31774;SDS011;66189;49.000;11.640;2023-04-09T12:16:18;17.38;;;11.27;;
31774;SDS011;66189;49.000;11.640;2023-04-09T12:18:20;15.95;;;11.05;;
31774;SDS011;66189;49.000;11.640;2023-04-09T12:20:40;22.80;;;13.50;;
31774;SDS011;66189;49.000;11.640;2023-04-09T12:22:46;20.90;;;13.00;;
31774;SDS011;66189;49.000;11.640;2023-04-09T12:24:47;18.60;;;12.70;;
31774;SDS011;66189;49.000;11.640;2023-04-09T12:26:47;20.67;;;13.82;;
31774;SDS011;66189;49.000;11.640;2023-04-09T12:28:48;17.73;;;11.65;;
31774;SDS011;66189;49.000;11.640;2023-04-09T12:30:49;17.95;;;12.73;;
31774;SDS011;66189;49.000;11.640;2023-04-09T12:32:50;15.15;;;10.98;;
31774;SDS011;66189;49.000;11.640;2023-04-09T12:34:51;18.30;;;12.00;;
31774;SDS011;66189;49.000;11.640;2023-04-09T12:36:52;18.55;;;13.05;;
31774;SDS011;66189;49.000;11.640;2023-04-09T12:40:53;16.67;;;11.67;;
31774;SDS011;66189;49.000;11.640;2023-04-09T12:42:53;17.75;;;11.43;;
31774;SDS011;66189;49.000;11.640;2023-04-09T12:44:54;16.98;;;11.20;;
31774;SDS011;66189;49.000;11.640;2023-04-09T12:46:54;15.38;;;10.93;;
31774;SDS011;66189;49.000;11.640;2023-04-09T12:48:55;16.50;;;11.38;;
31774;SDS011;66189;49.000;11.640;2023-04-09T12:50:55;16.83;;;11.15;;
31774;SDS011;66189;49.000;11.640;2023-04-09T12:54:56;18.67;;;11.17;;
31774;SDS011;66189;49.000;11.640;2023-04-09T12:56:59;19.45;;;12.23;;
31774;SDS011;66189;49.000;11.640;2023-04-09T12:59:00;18.83;;;12.15;;
31774;SDS011;66189;49.000;11.640;2023-04-09T13:01:00;17.73;;;11.60;;
31774;SDS011;66189;49.000;11.640;2023-04-09T13:03:03;21.42;;;12.13;;
31774;SDS011;66189;49.000;11.640;2023-04-09T13:05:03;16.77;;;11.32;;
31774;SDS011;66189;49.000;11.640;2023-04-09T13:09:05;18.42;;;11.48;;
31774;SDS011;66189;49.000;11.640;2023-04-09T13:13:05;14.77;;;10.20;;